Skip Navigation Links
NOAA logo - Click to go to the NOAA homepage
NOAA's National Weather Service
Alaska Aviation Weather Unit
  NWS logo - Click to go to the NWS homepage
Left Navbar Graphic     10 AKDT = 18 GMT

   
NOAA is celebrating 200 years of science, service, and stewardship. Visit the NOAA 200th celebration Web site to learn more.
USA.gov is the U.S. Government's official Web portal to all Federal, state and local government Web resources and services.
Facebook
NWS on Facebook

Important Change Regarding the AAWU Web Presence

 

Over the last several months, the AAWU has been working to navigate its webpages to a nationally supported server. Security, as well as other needs, have necessitated the change.  We have been given an extension for the site changeover while we diligently work at addressing feedback received. As of July 14, 2017, aawu.arh.noaa.gov will be discontinued. The new AAWU web address is weather.gov/aawu. It is now live and will run in-parallel with the old site until it is discontinued on July 14, 2017. Please continue to send any feedback or questions regarding the new webpages to nws.ar.aawu.webauthors@noaa.gov.  Thank you for your patience during this time of transition.
AAWU Home :: Display TAF Add Bookmark
METAR PATO 261253Z AUTO 00000KT 1 1/2SM BR BKN002 OVC050 04/04 A2976 RMK
     AO2 SLP078 T00440039 TSNO=

SPECI PATO 261302Z AUTO 00000KT 1/2SM FG VV002 04/04 A2976 RMK AO2
     T00440039 TSNO=

SPECI PATO 261313Z AUTO 00000KT 1/4SM FG BKN002 OVC050 04/04 A2975 RMK
     AO2 T00440039 TSNO=

SPECI PATO 261322Z AUTO 00000KT 1/2SM FG SCT002 OVC050 04/03 A2975 RMK
     AO2 T00390033 TSNO=

SPECI PATO 261337Z AUTO 00000KT 1/4SM FG BKN002 OVC050 04/03 A2975 RMK
     AO2 T00390033 TSNO=

METAR PATO 261353Z AUTO 00000KT 1/2SM FG VV002 03/03 A2974 RMK AO2
     SLP072 T00330033 TSNO=

SPECI PATO 261404Z AUTO 00000KT 1/4SM FG VV002 04/03 A2974 RMK AO2
     T00390033 TSNO=

SPECI PATO 261430Z AUTO 00000KT 1/2SM FG VV003 03/03 A2973 RMK AO2
     T00330028 TSNO=

METAR PATO 261453Z AUTO 00000KT 3/4SM BR VV002 03/03 A2973 RMK AO2
     SLP067 T00330028 56015 TSNO=

METAR PATO 261553Z AUTO 00000KT 1/4SM FG VV003 03/02 A2972 RMK AO2
     SLP066 T00280022 TSNO=

METAR PATO 261653Z AUTO 00000KT 1/4SM FG VV003 03/03 A2972 RMK AO2
     SLP063 T00330028 TSNO=

METAR PATO 261753Z AUTO 00000KT 1/4SM FG VV003 03/03 A2970 RMK AO2
     SLP057 T00330028 10044 20028 58010 TSNO=


NOAA's National Weather Service
Alaska Aviation Weather Unit
6930 Sand Lake Road
Anchorage, AK 99502-1845
Disclaimer
Credits
Glossary
Privacy Policy
About Us
Career Opportunities
Contact AAWU Internet Services Site last modified: April, 17th 2012